sensor_id;sensor_type;location;lat;lon;timestamp;pressure;altitude;pressure_sealevel;temperature;humidity
62655;BME280;48717;55.556;37.816;2023-05-08T00:01:12;100874.41;;;2.57;52.87
62655;BME280;48717;55.556;37.816;2023-05-08T00:03:41;100881.19;;;2.54;53.35
62655;BME280;48717;55.556;37.816;2023-05-08T00:06:08;100867.56;;;2.41;54.48
62655;BME280;48717;55.556;37.816;2023-05-08T00:08:36;100869.06;;;2.36;53.70
62655;BME280;48717;55.556;37.816;2023-05-08T00:11:03;100876.19;;;2.40;54.39
62655;BME280;48717;55.556;37.816;2023-05-08T00:13:30;100890.91;;;2.40;53.65
62655;BME280;48717;55.556;37.816;2023-05-08T00:15:57;100892.41;;;2.34;54.16
62655;BME280;48717;55.556;37.816;2023-05-08T00:18:24;100894.00;;;2.32;54.49
62655;BME280;48717;55.556;37.816;2023-05-08T00:20:52;100877.28;;;2.27;53.65
62655;BME280;48717;55.556;37.816;2023-05-08T00:23:19;100894.19;;;2.35;53.86
62655;BME280;48717;55.556;37.816;2023-05-08T00:25:47;100891.56;;;2.35;55.03
62655;BME280;48717;55.556;37.816;2023-05-08T00:28:15;100893.72;;;2.26;55.46
62655;BME280;48717;55.556;37.816;2023-05-08T00:30:42;100899.75;;;2.25;55.32
62655;BME280;48717;55.556;37.816;2023-05-08T00:33:09;100890.28;;;2.09;56.18
62655;BME280;48717;55.556;37.816;2023-05-08T00:35:37;100894.59;;;2.08;56.72
62655;BME280;48717;55.556;37.816;2023-05-08T00:38:07;100906.13;;;1.97;58.64
62655;BME280;48717;55.556;37.816;2023-05-08T00:40:34;100907.59;;;1.92;56.97
62655;BME280;48717;55.556;37.816;2023-05-08T00:43:01;100912.91;;;1.77;59.49
62655;BME280;48717;55.556;37.816;2023-05-08T00:45:33;100900.97;;;1.64;58.97
62655;BME280;48717;55.556;37.816;2023-05-08T00:48:01;100903.81;;;1.52;61.14
62655;BME280;48717;55.556;37.816;2023-05-08T00:50:30;100895.19;;;1.36;60.03
62655;BME280;48717;55.556;37.816;2023-05-08T00:52:59;100883.25;;;1.23;60.60
62655;BME280;48717;55.556;37.816;2023-05-08T00:55:29;100898.19;;;1.27;61.25
62655;BME280;48717;55.556;37.816;2023-05-08T00:57:57;100904.03;;;1.23;61.74
62655;BME280;48717;55.556;37.816;2023-05-08T01:00:25;100914.56;;;1.26;62.38
62655;BME280;48717;55.556;37.816;2023-05-08T01:02:52;100887.94;;;1.14;61.86
62655;BME280;48717;55.556;37.816;2023-05-08T01:05:20;100909.25;;;1.23;61.65
62655;BME280;48717;55.556;37.816;2023-05-08T01:07:47;100907.38;;;1.21;62.42
62655;BME280;48717;55.556;37.816;2023-05-08T01:10:14;100911.47;;;1.17;63.26
62655;BME280;48717;55.556;37.816;2023-05-08T01:15:31;100909.28;;;1.08;64.26
62655;BME280;48717;55.556;37.816;2023-05-08T01:18:22;100915.75;;;1.00;63.65
62655;BME280;48717;55.556;37.816;2023-05-08T01:24:01;100916.66;;;1.00;63.10
62655;BME280;48717;55.556;37.816;2023-05-08T01:37:49;100928.34;;;0.77;65.03
62655;BME280;48717;55.556;37.816;2023-05-08T01:40:24;100930.66;;;0.72;66.49
62655;BME280;48717;55.556;37.816;2023-05-08T01:43:05;100932.75;;;0.63;66.40
62655;BME280;48717;55.556;37.816;2023-05-08T01:45:38;100936.78;;;0.58;67.46
62655;BME280;48717;55.556;37.816;2023-05-08T01:48:11;100932.66;;;0.46;68.00
62655;BME280;48717;55.556;37.816;2023-05-08T01:50:46;100934.00;;;0.55;65.37
62655;BME280;48717;55.556;37.816;2023-05-08T01:53:25;100913.72;;;0.47;65.60
62655;BME280;48717;55.556;37.816;2023-05-08T01:55:57;100935.84;;;0.72;64.47
62655;BME280;48717;55.556;37.816;2023-05-08T01:58:26;100945.97;;;0.83;64.74
62655;BME280;48717;55.556;37.816;2023-05-08T02:00:54;100936.94;;;0.91;63.66
62655;BME280;48717;55.556;37.816;2023-05-08T02:03:23;100915.47;;;0.78;63.19
62655;BME280;48717;55.556;37.816;2023-05-08T02:05:54;100937.78;;;1.07;62.37
62655;BME280;48717;55.556;37.816;2023-05-08T02:08:23;100941.69;;;1.15;62.16
62655;BME280;48717;55.556;37.816;2023-05-08T02:10:51;100941.06;;;1.19;61.96
62655;BME280;48717;55.556;37.816;2023-05-08T02:13:19;100925.19;;;1.14;61.69
62655;BME280;48717;55.556;37.816;2023-05-08T02:15:49;100926.09;;;1.15;61.54
62655;BME280;48717;55.556;37.816;2023-05-08T02:18:19;100954.56;;;1.28;61.32
62655;BME280;48717;55.556;37.816;2023-05-08T02:20:51;100914.97;;;1.17;61.60
62655;BME280;48717;55.556;37.816;2023-05-08T02:23:42;100956.84;;;1.39;60.98
62655;BME280;48717;55.556;37.816;2023-05-08T02:26:10;100951.63;;;1.39;61.08
62655;BME280;48717;55.556;37.816;2023-05-08T02:28:39;100932.47;;;1.37;60.97
62655;BME280;48717;55.556;37.816;2023-05-08T02:31:08;100955.56;;;1.47;61.19
62655;BME280;48717;55.556;37.816;2023-05-08T02:33:37;100943.06;;;1.40;61.25
62655;BME280;48717;55.556;37.816;2023-05-08T02:36:07;100953.78;;;1.46;61.15
62655;BME280;48717;55.556;37.816;2023-05-08T02:38:37;100935.06;;;1.37;61.22
62655;BME280;48717;55.556;37.816;2023-05-08T02:41:06;100958.25;;;1.49;61.04
62655;BME280;48717;55.556;37.816;2023-05-08T02:43:35;100948.66;;;1.48;60.86
62655;BME280;48717;55.556;37.816;2023-05-08T02:46:15;100961.88;;;1.52;60.98
62655;BME280;48717;55.556;37.816;2023-05-08T02:49:06;100960.28;;;1.54;60.58
62655;BME280;48717;55.556;37.816;2023-05-08T02:54:23;100964.97;;;1.62;60.44
62655;BME280;48717;55.556;37.816;2023-05-08T02:57:13;100974.09;;;1.70;60.33
62655;BME280;48717;55.556;37.816;2023-05-08T02:59:57;100974.28;;;1.73;59.75
62655;BME280;48717;55.556;37.816;2023-05-08T03:02:59;100985.72;;;1.77;60.99
62655;BME280;48717;55.556;37.816;2023-05-08T03:05:31;100975.91;;;1.71;60.97
62655;BME280;48717;55.556;37.816;2023-05-08T03:08:05;100986.44;;;1.74;61.92
62655;BME280;48717;55.556;37.816;2023-05-08T03:10:35;100972.31;;;1.69;61.97
62655;BME280;48717;55.556;37.816;2023-05-08T03:13:04;100984.50;;;1.70;62.58
62655;BME280;48717;55.556;37.816;2023-05-08T03:18:06;100985.41;;;1.71;62.72
62655;BME280;48717;55.556;37.816;2023-05-08T03:20:38;100976.56;;;1.67;62.72
62655;BME280;48717;55.556;37.816;2023-05-08T03:23:08;100993.78;;;1.81;63.37
62655;BME280;48717;55.556;37.816;2023-05-08T03:25:37;100996.06;;;1.92;62.35
62655;BME280;48717;55.556;37.816;2023-05-08T03:28:06;101003.03;;;1.93;63.11
62655;BME280;48717;55.556;37.816;2023-05-08T03:30:39;101001.59;;;1.98;62.41
62655;BME280;48717;55.556;37.816;2023-05-08T03:33:11;101008.88;;;2.05;61.80
62655;BME280;48717;55.556;37.816;2023-05-08T03:35:39;101009.25;;;2.12;62.80
62655;BME280;48717;55.556;37.816;2023-05-08T03:38:08;101012.06;;;2.16;62.87
62655;BME280;48717;55.556;37.816;2023-05-08T03:40:35;101005.34;;;2.20;63.51
62655;BME280;48717;55.556;37.816;2023-05-08T03:43:06;101007.69;;;2.32;63.24
62655;BME280;48717;55.556;37.816;2023-05-08T03:45:38;100993.09;;;2.35;63.17
62655;BME280;48717;55.556;37.816;2023-05-08T03:48:07;101003.25;;;2.47;63.69
62655;BME280;48717;55.556;37.816;2023-05-08T03:50:36;101002.81;;;2.56;63.39
62655;BME280;48717;55.556;37.816;2023-05-08T03:53:06;101006.84;;;2.68;62.58
62655;BME280;48717;55.556;37.816;2023-05-08T03:55:34;101019.53;;;2.78;63.05
62655;BME280;48717;55.556;37.816;2023-05-08T03:58:10;101019.09;;;2.87;62.62
62655;BME280;48717;55.556;37.816;2023-05-08T04:06:49;101016.06;;;3.32;59.95
62655;BME280;48717;55.556;37.816;2023-05-08T04:09:37;100990.66;;;3.28;59.62
62655;BME280;48717;55.556;37.816;2023-05-08T04:14:44;101021.22;;;3.69;58.82
62655;BME280;48717;55.556;37.816;2023-05-08T04:17:18;101006.88;;;3.98;57.70
62655;BME280;48717;55.556;37.816;2023-05-08T04:19:52;101025.59;;;4.68;56.17
62655;BME280;48717;55.556;37.816;2023-05-08T04:22:24;101013.16;;;5.27;54.49
62655;BME280;48717;55.556;37.816;2023-05-08T04:24:54;101012.38;;;5.75;52.50
62655;BME280;48717;55.556;37.816;2023-05-08T04:27:25;100995.75;;;5.97;50.58
62655;BME280;48717;55.556;37.816;2023-05-08T04:29:53;101016.88;;;6.51;49.71
62655;BME280;48717;55.556;37.816;2023-05-08T04:32:22;101017.66;;;7.00;47.76
62655;BME280;48717;55.556;37.816;2023-05-08T04:34:50;101017.44;;;7.49;46.98
62655;BME280;48717;55.556;37.816;2023-05-08T04:37:28;101016.06;;;7.91;45.39
62655;BME280;48717;55.556;37.816;2023-05-08T04:39:59;101003.66;;;8.18;44.74
62655;BME280;48717;55.556;37.816;2023-05-08T04:42:30;101011.22;;;8.38;43.66
62655;BME280;48717;55.556;37.816;2023-05-08T04:45:00;101014.50;;;8.61;42.63
62655;BME280;48717;55.556;37.816;2023-05-08T04:47:31;101001.88;;;8.81;42.25
62655;BME280;48717;55.556;37.816;2023-05-08T04:50:00;100992.09;;;9.12;41.21
62655;BME280;48717;55.556;37.816;2023-05-08T04:52:30;101011.16;;;9.40;40.26
62655;BME280;48717;55.556;37.816;2023-05-08T04:54:57;101002.00;;;9.64;39.21
62655;BME280;48717;55.556;37.816;2023-05-08T04:57:24;101020.28;;;9.97;38.62
62655;BME280;48717;55.556;37.816;2023-05-08T04:59:52;101009.84;;;10.03;37.79
62655;BME280;48717;55.556;37.816;2023-05-08T05:02:19;101015.03;;;10.00;37.53
62655;BME280;48717;55.556;37.816;2023-05-08T05:04:47;101007.38;;;10.11;36.85
62655;BME280;48717;55.556;37.816;2023-05-08T05:07:14;101013.53;;;10.11;37.14
62655;BME280;48717;55.556;37.816;2023-05-08T05:09:42;101027.44;;;10.47;36.68
62655;BME280;48717;55.556;37.816;2023-05-08T05:12:09;101008.31;;;10.59;36.32
62655;BME280;48717;55.556;37.816;2023-05-08T05:14:36;101025.88;;;11.11;35.33
62655;BME280;48717;55.556;37.816;2023-05-08T05:17:04;101017.72;;;11.53;35.04
62655;BME280;48717;55.556;37.816;2023-05-08T05:19:32;101026.91;;;11.80;34.22
62655;BME280;48717;55.556;37.816;2023-05-08T05:21:59;101021.09;;;12.09;33.69
62655;BME280;48717;55.556;37.816;2023-05-08T05:24:26;101020.25;;;12.10;32.59
62655;BME280;48717;55.556;37.816;2023-05-08T05:26:56;101019.19;;;11.98;33.19
62655;BME280;48717;55.556;37.816;2023-05-08T05:29:23;101029.75;;;11.97;32.80
62655;BME280;48717;55.556;37.816;2023-05-08T05:31:50;101037.13;;;12.18;32.79
62655;BME280;48717;55.556;37.816;2023-05-08T05:34:18;101020.44;;;12.25;32.37
62655;BME280;48717;55.556;37.816;2023-05-08T05:36:45;101030.47;;;12.58;32.19
62655;BME280;48717;55.556;37.816;2023-05-08T05:39:12;101015.56;;;12.66;31.66
62655;BME280;48717;55.556;37.816;2023-05-08T05:41:39;101035.00;;;12.68;31.05
62655;BME280;48717;55.556;37.816;2023-05-08T05:44:10;101034.06;;;12.66;30.94
62655;BME280;48717;55.556;37.816;2023-05-08T05:46:38;101026.16;;;12.68;30.28
62655;BME280;48717;55.556;37.816;2023-05-08T05:49:09;101021.13;;;12.94;30.12
62655;BME280;48717;55.556;37.816;2023-05-08T05:51:37;101024.72;;;13.02;29.50
62655;BME280;48717;55.556;37.816;2023-05-08T05:54:04;101028.19;;;12.95;29.52
62655;BME280;48717;55.556;37.816;2023-05-08T05:56:31;101010.69;;;13.16;28.92
62655;BME280;48717;55.556;37.816;2023-05-08T05:58:59;101025.81;;;13.29;28.39
62655;BME280;48717;55.556;37.816;2023-05-08T06:01:26;101028.28;;;13.08;28.65
62655;BME280;48717;55.556;37.816;2023-05-08T06:03:55;101022.09;;;13.07;28.44
62655;BME280;48717;55.556;37.816;2023-05-08T06:06:22;101027.50;;;13.21;28.23
62655;BME280;48717;55.556;37.816;2023-05-08T06:08:50;101031.09;;;13.29;27.89
62655;BME280;48717;55.556;37.816;2023-05-08T06:11:17;101030.16;;;13.24;27.56
62655;BME280;48717;55.556;37.816;2023-05-08T06:13:45;101030.25;;;13.34;27.48
62655;BME280;48717;55.556;37.816;2023-05-08T06:16:16;101027.13;;;12.77;28.17
62655;BME280;48717;55.556;37.816;2023-05-08T06:18:43;101034.16;;;12.75;28.43
62655;BME280;48717;55.556;37.816;2023-05-08T06:21:11;101036.13;;;12.95;28.39
62655;BME280;48717;55.556;37.816;2023-05-08T06:23:38;101028.63;;;13.54;27.72
62655;BME280;48717;55.556;37.816;2023-05-08T06:26:05;101011.09;;;13.81;26.94
62655;BME280;48717;55.556;37.816;2023-05-08T06:28:32;101020.97;;;14.17;26.61
62655;BME280;48717;55.556;37.816;2023-05-08T06:30:59;101039.63;;;14.48;26.10
62655;BME280;48717;55.556;37.816;2023-05-08T06:33:26;101029.09;;;14.76;25.50
62655;BME280;48717;55.556;37.816;2023-05-08T06:35:53;101025.56;;;15.14;25.27
62655;BME280;48717;55.556;37.816;2023-05-08T06:38:20;101014.94;;;15.30;24.50
62655;BME280;48717;55.556;37.816;2023-05-08T06:40:48;101013.03;;;15.82;24.23
62655;BME280;48717;55.556;37.816;2023-05-08T06:43:16;101022.69;;;16.10;23.65
62655;BME280;48717;55.556;37.816;2023-05-08T06:45:43;101018.31;;;16.02;23.06
62655;BME280;48717;55.556;37.816;2023-05-08T06:48:11;101016.44;;;16.18;23.26
62655;BME280;48717;55.556;37.816;2023-05-08T06:50:39;101003.72;;;16.67;22.79
62655;BME280;48717;55.556;37.816;2023-05-08T06:53:06;101019.72;;;16.64;22.36
62655;BME280;48717;55.556;37.816;2023-05-08T06:55:34;101016.97;;;16.75;22.67
62655;BME280;48717;55.556;37.816;2023-05-08T06:58:01;101014.22;;;16.89;22.62
62655;BME280;48717;55.556;37.816;2023-05-08T07:00:28;100996.50;;;16.85;21.85
62655;BME280;48717;55.556;37.816;2023-05-08T07:02:55;101013.00;;;17.28;21.89
62655;BME280;48717;55.556;37.816;2023-05-08T07:05:23;101011.22;;;17.30;21.87
62655;BME280;48717;55.556;37.816;2023-05-08T07:07:50;100989.56;;;17.59;21.59
62655;BME280;48717;55.556;37.816;2023-05-08T07:10:20;101001.19;;;18.29;20.96
62655;BME280;48717;55.556;37.816;2023-05-08T07:12:48;100997.38;;;19.02;20.51
62655;BME280;48717;55.556;37.816;2023-05-08T07:15:16;101003.41;;;19.63;19.73
62655;BME280;48717;55.556;37.816;2023-05-08T07:17:52;100993.69;;;20.04;18.90
62655;BME280;48717;55.556;37.816;2023-05-08T07:20:19;100993.38;;;19.74;19.04
62655;BME280;48717;55.556;37.816;2023-05-08T07:22:47;100980.63;;;19.43;19.21
62655;BME280;48717;55.556;37.816;2023-05-08T07:25:14;100990.00;;;19.17;19.37
62655;BME280;48717;55.556;37.816;2023-05-08T07:27:42;100980.09;;;18.70;19.67
62655;BME280;48717;55.556;37.816;2023-05-08T07:30:09;100995.28;;;18.02;20.11
62655;BME280;48717;55.556;37.816;2023-05-08T07:32:37;100984.28;;;18.27;19.32
62655;BME280;48717;55.556;37.816;2023-05-08T07:35:07;100984.44;;;18.74;18.71
62655;BME280;48717;55.556;37.816;2023-05-08T07:37:40;100958.84;;;19.16;18.01
62655;BME280;48717;55.556;37.816;2023-05-08T07:40:07;100976.78;;;19.56;17.91
62655;BME280;48717;55.556;37.816;2023-05-08T07:42:39;100980.50;;;19.49;16.73
62655;BME280;48717;55.556;37.816;2023-05-08T07:45:08;100978.50;;;19.61;16.90
62655;BME280;48717;55.556;37.816;2023-05-08T07:47:37;100971.91;;;19.77;16.36
62655;BME280;48717;55.556;37.816;2023-05-08T07:50:04;100991.72;;;20.13;16.49
62655;BME280;48717;55.556;37.816;2023-05-08T07:52:32;100984.41;;;20.21;16.53
62655;BME280;48717;55.556;37.816;2023-05-08T07:54:59;100987.16;;;19.72;16.86
62655;BME280;48717;55.556;37.816;2023-05-08T07:57:26;100981.44;;;19.91;17.23
62655;BME280;48717;55.556;37.816;2023-05-08T07:59:53;100976.63;;;20.48;17.56
62655;BME280;48717;55.556;37.816;2023-05-08T08:02:20;100979.28;;;20.88;17.11
62655;BME280;48717;55.556;37.816;2023-05-08T08:04:47;100966.41;;;21.02;16.89
62655;BME280;48717;55.556;37.816;2023-05-08T08:07:15;100967.72;;;21.52;17.41
62655;BME280;48717;55.556;37.816;2023-05-08T08:09:42;100961.94;;;21.34;16.31
62655;BME280;48717;55.556;37.816;2023-05-08T08:12:09;100975.13;;;21.10;16.84
62655;BME280;48717;55.556;37.816;2023-05-08T08:14:37;100977.16;;;20.26;16.86
62655;BME280;48717;55.556;37.816;2023-05-08T08:17:04;100983.25;;;18.94;18.27
62655;BME280;48717;55.556;37.816;2023-05-08T08:19:31;100978.75;;;17.72;19.38
62655;BME280;48717;55.556;37.816;2023-05-08T08:21:58;100989.63;;;16.53;20.67
62655;BME280;48717;55.556;37.816;2023-05-08T08:24:25;100983.84;;;15.62;21.80
62655;BME280;48717;55.556;37.816;2023-05-08T08:26:55;100975.97;;;15.26;23.00
62655;BME280;48717;55.556;37.816;2023-05-08T08:29:22;100983.09;;;14.77;23.42
62655;BME280;48717;55.556;37.816;2023-05-08T08:31:49;100983.03;;;14.46;23.30
62655;BME280;48717;55.556;37.816;2023-05-08T08:34:16;100981.28;;;14.54;23.67
62655;BME280;48717;55.556;37.816;2023-05-08T08:36:43;100981.28;;;14.74;22.82
62655;BME280;48717;55.556;37.816;2023-05-08T08:39:10;100977.72;;;14.74;23.32
62655;BME280;48717;55.556;37.816;2023-05-08T08:41:40;100980.38;;;14.57;23.07
62655;BME280;48717;55.556;37.816;2023-05-08T08:44:08;100974.13;;;14.19;23.65
62655;BME280;48717;55.556;37.816;2023-05-08T08:46:39;100939.53;;;13.81;23.68
62655;BME280;48717;55.556;37.816;2023-05-08T08:49:12;100964.06;;;13.40;24.45
62655;BME280;48717;55.556;37.816;2023-05-08T08:51:50;100970.94;;;13.13;24.72
62655;BME280;48717;55.556;37.816;2023-05-08T08:54:29;100977.09;;;13.09;25.16
62655;BME280;48717;55.556;37.816;2023-05-08T08:57:00;100983.50;;;13.40;24.51
62655;BME280;48717;55.556;37.816;2023-05-08T08:59:28;100965.09;;;13.61;23.79
62655;BME280;48717;55.556;37.816;2023-05-08T09:01:57;100971.47;;;14.23;23.33
62655;BME280;48717;55.556;37.816;2023-05-08T09:04:27;100960.06;;;14.82;22.45
62655;BME280;48717;55.556;37.816;2023-05-08T09:06:55;100958.06;;;15.84;22.03
62655;BME280;48717;55.556;37.816;2023-05-08T09:09:24;100965.44;;;16.82;19.86
62655;BME280;48717;55.556;37.816;2023-05-08T09:11:51;100960.72;;;17.14;19.33
62655;BME280;48717;55.556;37.816;2023-05-08T09:14:19;100948.38;;;17.08;19.20
62655;BME280;48717;55.556;37.816;2023-05-08T09:16:46;100971.50;;;16.99;19.36
62655;BME280;48717;55.556;37.816;2023-05-08T09:19:13;100964.81;;;16.48;19.57
62655;BME280;48717;55.556;37.816;2023-05-08T09:21:44;100971.31;;;15.93;20.20
62655;BME280;48717;55.556;37.816;2023-05-08T09:24:11;100968.78;;;15.62;20.87
62655;BME280;48717;55.556;37.816;2023-05-08T09:26:40;100946.78;;;15.01;20.33
62655;BME280;48717;55.556;37.816;2023-05-08T09:31:40;100941.44;;;14.39;22.47
62655;BME280;48717;55.556;37.816;2023-05-08T09:34:10;100924.56;;;13.96;22.64
62655;BME280;48717;55.556;37.816;2023-05-08T09:36:37;100963.34;;;13.69;23.26
62655;BME280;48717;55.556;37.816;2023-05-08T09:39:11;100966.59;;;13.24;23.98
62655;BME280;48717;55.556;37.816;2023-05-08T09:41:55;100950.38;;;12.77;24.84
62655;BME280;48717;55.556;37.816;2023-05-08T09:44:23;100957.34;;;12.63;24.87
62655;BME280;48717;55.556;37.816;2023-05-08T09:46:50;100954.75;;;12.75;25.19
62655;BME280;48717;55.556;37.816;2023-05-08T09:49:18;100961.59;;;13.77;24.63
62655;BME280;48717;55.556;37.816;2023-05-08T09:51:51;100952.94;;;14.75;22.96
62655;BME280;48717;55.556;37.816;2023-05-08T09:54:22;100952.06;;;15.26;22.44
62655;BME280;48717;55.556;37.816;2023-05-08T09:56:49;100931.59;;;15.50;22.38
62655;BME280;48717;55.556;37.816;2023-05-08T09:59:27;100941.41;;;15.35;22.06
62655;BME280;48717;55.556;37.816;2023-05-08T10:01:56;100941.38;;;15.32;22.08
62655;BME280;48717;55.556;37.816;2023-05-08T10:04:34;100946.75;;;15.29;22.27
62655;BME280;48717;55.556;37.816;2023-05-08T10:07:02;100927.25;;;15.14;22.33
62655;BME280;48717;55.556;37.816;2023-05-08T10:09:29;100952.09;;;14.95;22.25
62655;BME280;48717;55.556;37.816;2023-05-08T10:12:13;100941.50;;;14.76;23.67
62655;BME280;48717;55.556;37.816;2023-05-08T10:14:40;100925.53;;;14.32;23.52
62655;BME280;48717;55.556;37.816;2023-05-08T10:17:10;100954.69;;;14.23;25.16
62655;BME280;48717;55.556;37.816;2023-05-08T10:19:40;100947.56;;;14.13;23.83
62655;BME280;48717;55.556;37.816;2023-05-08T10:22:11;100948.38;;;13.76;23.64
62655;BME280;48717;55.556;37.816;2023-05-08T10:24:43;100947.28;;;13.38;24.17
62655;BME280;48717;55.556;37.816;2023-05-08T10:27:18;100929.63;;;13.46;24.33
62655;BME280;48717;55.556;37.816;2023-05-08T10:29:53;100937.72;;;13.68;23.98
62655;BME280;48717;55.556;37.816;2023-05-08T10:32:22;100950.13;;;13.83;24.38
62655;BME280;48717;55.556;37.816;2023-05-08T10:35:02;100928.03;;;13.70;24.13
62655;BME280;48717;55.556;37.816;2023-05-08T10:37:32;100935.78;;;13.39;24.29
62655;BME280;48717;55.556;37.816;2023-05-08T10:40:03;100947.16;;;13.22;24.46
62655;BME280;48717;55.556;37.816;2023-05-08T10:42:34;100932.16;;;13.26;24.52
62655;BME280;48717;55.556;37.816;2023-05-08T10:45:03;100934.97;;;13.49;24.72
62655;BME280;48717;55.556;37.816;2023-05-08T10:47:38;100940.22;;;13.40;24.29
62655;BME280;48717;55.556;37.816;2023-05-08T10:50:35;100934.78;;;13.16;24.33
62655;BME280;48717;55.556;37.816;2023-05-08T10:55:50;100936.56;;;13.22;24.11
62655;BME280;48717;55.556;37.816;2023-05-08T10:58:30;100938.47;;;13.45;24.30
62655;BME280;48717;55.556;37.816;2023-05-08T11:03:26;100932.25;;;13.38;23.74
62655;BME280;48717;55.556;37.816;2023-05-08T11:05:59;100929.63;;;13.43;23.32
62655;BME280;48717;55.556;37.816;2023-05-08T11:08:29;100921.78;;;13.62;23.93
62655;BME280;48717;55.556;37.816;2023-05-08T11:11:03;100926.34;;;14.03;23.45
62655;BME280;48717;55.556;37.816;2023-05-08T11:16:03;100909.59;;;14.74;22.34
62655;BME280;48717;55.556;37.816;2023-05-08T11:18:37;100910.50;;;14.78;21.72
62655;BME280;48717;55.556;37.816;2023-05-08T11:21:19;100918.38;;;15.28;21.73
62655;BME280;48717;55.556;37.816;2023-05-08T11:23:56;100907.47;;;16.00;20.81
62655;BME280;48717;55.556;37.816;2023-05-08T11:26:38;100910.66;;;16.50;19.95
62655;BME280;48717;55.556;37.816;2023-05-08T11:29:17;100907.78;;;16.77;20.01
62655;BME280;48717;55.556;37.816;2023-05-08T11:31:51;100913.34;;;16.49;20.33
62655;BME280;48717;55.556;37.816;2023-05-08T11:37:10;100914.69;;;15.70;20.41
62655;BME280;48717;55.556;37.816;2023-05-08T11:39:37;100906.94;;;15.01;21.59
62655;BME280;48717;55.556;37.816;2023-05-08T11:45:08;100887.31;;;13.58;24.06
62655;BME280;48717;55.556;37.816;2023-05-08T11:47:38;100904.88;;;13.35;24.60
62655;BME280;48717;55.556;37.816;2023-05-08T11:50:08;100925.09;;;13.18;24.79
62655;BME280;48717;55.556;37.816;2023-05-08T11:52:37;100918.75;;;12.96;25.34
62655;BME280;48717;55.556;37.816;2023-05-08T11:55:07;100925.78;;;12.91;25.29
62655;BME280;48717;55.556;37.816;2023-05-08T11:57:35;100899.09;;;12.60;25.23
62655;BME280;48717;55.556;37.816;2023-05-08T12:00:04;100923.72;;;12.49;25.62
62655;BME280;48717;55.556;37.816;2023-05-08T12:02:39;100920.09;;;12.41;25.94
62655;BME280;48717;55.556;37.816;2023-05-08T12:05:08;100928.00;;;12.38;26.31
62655;BME280;48717;55.556;37.816;2023-05-08T12:07:45;100921.00;;;12.43;25.83
62655;BME280;48717;55.556;37.816;2023-05-08T12:10:13;100931.56;;;12.43;26.42
62655;BME280;48717;55.556;37.816;2023-05-08T12:12:43;100920.06;;;12.38;26.19
62655;BME280;48717;55.556;37.816;2023-05-08T12:15:14;100928.63;;;12.12;26.33
62655;BME280;48717;55.556;37.816;2023-05-08T12:17:42;100930.25;;;12.00;26.11
62655;BME280;48717;55.556;37.816;2023-05-08T12:20:13;100920.53;;;12.01;26.13
62655;BME280;48717;55.556;37.816;2023-05-08T12:22:49;100919.75;;;12.05;26.40
62655;BME280;48717;55.556;37.816;2023-05-08T12:25:17;100907.44;;;12.09;26.45
62655;BME280;48717;55.556;37.816;2023-05-08T12:27:45;100918.13;;;12.18;26.70
62655;BME280;48717;55.556;37.816;2023-05-08T12:30:13;100918.97;;;12.16;26.03
62655;BME280;48717;55.556;37.816;2023-05-08T12:32:43;100911.91;;;12.14;25.81
62655;BME280;48717;55.556;37.816;2023-05-08T12:35:11;100909.28;;;12.16;26.20
62655;BME280;48717;55.556;37.816;2023-05-08T12:37:39;100910.28;;;12.31;26.11
62655;BME280;48717;55.556;37.816;2023-05-08T12:40:07;100898.03;;;12.39;25.86
62655;BME280;48717;55.556;37.816;2023-05-08T12:42:48;100894.41;;;12.26;25.68
62655;BME280;48717;55.556;37.816;2023-05-08T12:45:21;100909.44;;;12.32;25.57
62655;BME280;48717;55.556;37.816;2023-05-08T12:47:49;100869.81;;;12.38;25.28
62655;BME280;48717;55.556;37.816;2023-05-08T12:50:17;100897.53;;;12.87;25.42
62655;BME280;48717;55.556;37.816;2023-05-08T12:52:47;100889.69;;;13.07;25.14
62655;BME280;48717;55.556;37.816;2023-05-08T12:55:28;100888.94;;;13.31;24.58
62655;BME280;48717;55.556;37.816;2023-05-08T12:58:06;100890.84;;;13.54;23.89
62655;BME280;48717;55.556;37.816;2023-05-08T13:03:13;100877.75;;;14.28;23.18
62655;BME280;48717;55.556;37.816;2023-05-08T13:05:47;100868.00;;;14.69;22.74
62655;BME280;48717;55.556;37.816;2023-05-08T13:08:14;100881.28;;;15.00;21.84
62655;BME280;48717;55.556;37.816;2023-05-08T13:13:14;100867.88;;;15.37;22.19
62655;BME280;48717;55.556;37.816;2023-05-08T13:15:41;100869.59;;;15.45;21.82
62655;BME280;48717;55.556;37.816;2023-05-08T13:18:09;100866.09;;;15.39;21.24
62655;BME280;48717;55.556;37.816;2023-05-08T13:20:37;100870.59;;;15.26;21.21
62655;BME280;48717;55.556;37.816;2023-05-08T13:23:05;100879.41;;;15.24;21.83
62655;BME280;48717;55.556;37.816;2023-05-08T13:25:32;100872.31;;;15.35;21.44
62655;BME280;48717;55.556;37.816;2023-05-08T13:28:00;100872.22;;;15.62;21.81
62655;BME280;48717;55.556;37.816;2023-05-08T13:30:27;100864.34;;;15.35;21.85
62655;BME280;48717;55.556;37.816;2023-05-08T13:32:54;100860.91;;;14.99;21.37
62655;BME280;48717;55.556;37.816;2023-05-08T13:35:22;100868.91;;;14.61;21.97
62655;BME280;48717;55.556;37.816;2023-05-08T13:37:49;100878.63;;;14.11;22.62
62655;BME280;48717;55.556;37.816;2023-05-08T13:40:17;100879.44;;;13.74;22.83
62655;BME280;48717;55.556;37.816;2023-05-08T13:42:45;100867.84;;;13.47;23.43
62655;BME280;48717;55.556;37.816;2023-05-08T13:45:12;100874.03;;;13.49;24.13
62655;BME280;48717;55.556;37.816;2023-05-08T13:47:45;100881.94;;;13.43;24.34
62655;BME280;48717;55.556;37.816;2023-05-08T13:50:14;100880.09;;;13.26;24.27